sensor_id;sensor_type;location;lat;lon;timestamp;temperature;humidity
25058;DHT22;13057;50.978;11.034;2023-01-13T00:00:18;10.40;99.90
25058;DHT22;13057;50.978;11.034;2023-01-13T00:02:44;10.40;99.90
25058;DHT22;13057;50.978;11.034;2023-01-13T00:05:10;10.50;99.90
25058;DHT22;13057;50.978;11.034;2023-01-13T00:07:36;10.50;99.90
25058;DHT22;13057;50.978;11.034;2023-01-13T00:10:07;10.50;99.90
25058;DHT22;13057;50.978;11.034;2023-01-13T00:12:33;10.50;99.90
25058;DHT22;13057;50.978;11.034;2023-01-13T00:14:59;10.50;99.90
25058;DHT22;13057;50.978;11.034;2023-01-13T00:17:25;10.50;99.90
25058;DHT22;13057;50.978;11.034;2023-01-13T00:19:51;10.60;99.90
25058;DHT22;13057;50.978;11.034;2023-01-13T00:22:17;10.60;99.90
25058;DHT22;13057;50.978;11.034;2023-01-13T00:24:42;10.60;99.90
25058;DHT22;13057;50.978;11.034;2023-01-13T00:27:08;10.60;99.90
25058;DHT22;13057;50.978;11.034;2023-01-13T00:29:34;10.60;99.90
25058;DHT22;13057;50.978;11.034;2023-01-13T00:32:00;10.60;99.90
25058;DHT22;13057;50.978;11.034;2023-01-13T00:34:26;10.70;99.90
25058;DHT22;13057;50.978;11.034;2023-01-13T00:36:52;10.70;99.90
25058;DHT22;13057;50.978;11.034;2023-01-13T00:39:19;10.70;99.90
25058;DHT22;13057;50.978;11.034;2023-01-13T00:41:45;10.70;99.90
25058;DHT22;13057;50.978;11.034;2023-01-13T00:44:24;10.70;99.90
25058;DHT22;13057;50.978;11.034;2023-01-13T00:46:51;10.70;99.90
25058;DHT22;13057;50.978;11.034;2023-01-13T00:49:18;10.70;99.90
25058;DHT22;13057;50.978;11.034;2023-01-13T00:51:46;10.70;99.90
25058;DHT22;13057;50.978;11.034;2023-01-13T00:54:13;10.70;99.90
25058;DHT22;13057;50.978;11.034;2023-01-13T00:56:39;10.70;99.90
25058;DHT22;13057;50.978;11.034;2023-01-13T00:59:10;10.70;99.90
25058;DHT22;13057;50.978;11.034;2023-01-13T01:01:38;10.70;99.90
25058;DHT22;13057;50.978;11.034;2023-01-13T01:04:05;10.70;99.90
25058;DHT22;13057;50.978;11.034;2023-01-13T01:06:32;10.70;99.90
25058;DHT22;13057;50.978;11.034;2023-01-13T01:08:59;10.70;99.90
25058;DHT22;13057;50.978;11.034;2023-01-13T01:11:28;10.80;99.90
25058;DHT22;13057;50.978;11.034;2023-01-13T01:13:58;10.80;99.90
25058;DHT22;13057;50.978;11.034;2023-01-13T01:16:31;10.80;99.90
25058;DHT22;13057;50.978;11.034;2023-01-13T01:18:59;10.80;99.90
25058;DHT22;13057;50.978;11.034;2023-01-13T01:21:27;10.80;99.90
25058;DHT22;13057;50.978;11.034;2023-01-13T01:23:54;10.80;99.90
25058;DHT22;13057;50.978;11.034;2023-01-13T01:26:24;10.80;99.90
25058;DHT22;13057;50.978;11.034;2023-01-13T01:28:51;10.80;99.90
25058;DHT22;13057;50.978;11.034;2023-01-13T01:31:25;10.80;99.90
25058;DHT22;13057;50.978;11.034;2023-01-13T01:33:53;10.80;99.90
25058;DHT22;13057;50.978;11.034;2023-01-13T01:36:21;10.80;99.90
25058;DHT22;13057;50.978;11.034;2023-01-13T01:38:49;10.80;99.90
25058;DHT22;13057;50.978;11.034;2023-01-13T01:41:19;10.80;99.90
25058;DHT22;13057;50.978;11.034;2023-01-13T01:43:49;10.80;99.90
25058;DHT22;13057;50.978;11.034;2023-01-13T01:46:32;10.80;99.90
25058;DHT22;13057;50.978;11.034;2023-01-13T01:49:07;10.80;99.90
25058;DHT22;13057;50.978;11.034;2023-01-13T01:51:40;10.80;99.90
25058;DHT22;13057;50.978;11.034;2023-01-13T01:54:11;10.80;99.90
25058;DHT22;13057;50.978;11.034;2023-01-13T01:56:40;10.80;99.90
25058;DHT22;13057;50.978;11.034;2023-01-13T01:59:09;10.80;99.90
25058;DHT22;13057;50.978;11.034;2023-01-13T02:01:36;10.80;99.90
25058;DHT22;13057;50.978;11.034;2023-01-13T02:04:15;10.80;99.90
25058;DHT22;13057;50.978;11.034;2023-01-13T02:06:43;10.80;99.90
25058;DHT22;13057;50.978;11.034;2023-01-13T02:09:11;10.80;99.90
25058;DHT22;13057;50.978;11.034;2023-01-13T02:11:38;10.80;99.90
25058;DHT22;13057;50.978;11.034;2023-01-13T02:14:21;10.90;99.90
25058;DHT22;13057;50.978;11.034;2023-01-13T02:16:56;10.90;99.90
25058;DHT22;13057;50.978;11.034;2023-01-13T02:19:59;10.90;99.90
25058;DHT22;13057;50.978;11.034;2023-01-13T02:26:25;11.00;99.90
25058;DHT22;13057;50.978;11.034;2023-01-13T02:29:11;11.00;99.90
25058;DHT22;13057;50.978;11.034;2023-01-13T02:31:59;11.00;99.90
25058;DHT22;13057;50.978;11.034;2023-01-13T02:34:37;11.00;99.90
25058;DHT22;13057;50.978;11.034;2023-01-13T02:37:15;11.00;99.90
25058;DHT22;13057;50.978;11.034;2023-01-13T02:39:58;11.00;99.90
25058;DHT22;13057;50.978;11.034;2023-01-13T02:42:30;11.00;99.90
25058;DHT22;13057;50.978;11.034;2023-01-13T02:45:17;11.00;99.90
25058;DHT22;13057;50.978;11.034;2023-01-13T02:47:57;11.00;99.90
25058;DHT22;13057;50.978;11.034;2023-01-13T02:50:29;11.00;99.90
25058;DHT22;13057;50.978;11.034;2023-01-13T02:53:02;10.90;99.90
25058;DHT22;13057;50.978;11.034;2023-01-13T02:55:42;10.90;99.90
25058;DHT22;13057;50.978;11.034;2023-01-13T02:58:15;10.90;99.90
25058;DHT22;13057;50.978;11.034;2023-01-13T03:00:44;10.80;99.90
25058;DHT22;13057;50.978;11.034;2023-01-13T03:03:11;10.80;99.90
25058;DHT22;13057;50.978;11.034;2023-01-13T03:05:39;10.80;99.90
25058;DHT22;13057;50.978;11.034;2023-01-13T03:08:20;10.80;99.90
25058;DHT22;13057;50.978;11.034;2023-01-13T03:11:10;10.80;99.90
25058;DHT22;13057;50.978;11.034;2023-01-13T03:13:52;10.80;99.90
25058;DHT22;13057;50.978;11.034;2023-01-13T03:16:34;10.80;99.90
25058;DHT22;13057;50.978;11.034;2023-01-13T03:19:19;10.80;99.90
25058;DHT22;13057;50.978;11.034;2023-01-13T03:21:56;10.80;99.90
25058;DHT22;13057;50.978;11.034;2023-01-13T03:24:36;10.70;99.90
25058;DHT22;13057;50.978;11.034;2023-01-13T03:27:15;10.70;99.90
25058;DHT22;13057;50.978;11.034;2023-01-13T03:29:55;10.70;99.90
25058;DHT22;13057;50.978;11.034;2023-01-13T03:32:29;10.70;99.90
25058;DHT22;13057;50.978;11.034;2023-01-13T03:35:12;10.70;99.90
25058;DHT22;13057;50.978;11.034;2023-01-13T03:37:45;10.80;99.90
25058;DHT22;13057;50.978;11.034;2023-01-13T03:40:16;10.80;99.90
25058;DHT22;13057;50.978;11.034;2023-01-13T03:42:45;10.80;99.90
25058;DHT22;13057;50.978;11.034;2023-01-13T03:45:34;10.90;99.90
25058;DHT22;13057;50.978;11.034;2023-01-13T03:48:06;10.90;99.90
25058;DHT22;13057;50.978;11.034;2023-01-13T03:50:38;10.90;99.90
25058;DHT22;13057;50.978;11.034;2023-01-13T03:53:10;10.90;99.90
25058;DHT22;13057;50.978;11.034;2023-01-13T03:55:41;10.90;99.90
25058;DHT22;13057;50.978;11.034;2023-01-13T03:58:17;10.90;99.90
25058;DHT22;13057;50.978;11.034;2023-01-13T04:00:56;10.90;99.90
25058;DHT22;13057;50.978;11.034;2023-01-13T04:03:28;11.00;99.90
25058;DHT22;13057;50.978;11.034;2023-01-13T04:05:57;11.00;99.90
25058;DHT22;13057;50.978;11.034;2023-01-13T04:08:27;11.00;99.90
25058;DHT22;13057;50.978;11.034;2023-01-13T04:11:11;11.00;99.90
25058;DHT22;13057;50.978;11.034;2023-01-13T04:13:46;11.00;99.90
25058;DHT22;13057;50.978;11.034;2023-01-13T04:16:25;11.00;99.90
25058;DHT22;13057;50.978;11.034;2023-01-13T04:18:51;11.00;99.90
25058;DHT22;13057;50.978;11.034;2023-01-13T04:21:16;11.00;99.90
25058;DHT22;13057;50.978;11.034;2023-01-13T04:23:42;11.00;99.90
25058;DHT22;13057;50.978;11.034;2023-01-13T04:26:08;11.00;99.90
25058;DHT22;13057;50.978;11.034;2023-01-13T04:28:34;11.00;99.90
25058;DHT22;13057;50.978;11.034;2023-01-13T04:31:00;11.00;99.90
25058;DHT22;13057;50.978;11.034;2023-01-13T04:33:25;11.00;99.90
25058;DHT22;13057;50.978;11.034;2023-01-13T04:35:51;11.00;99.90
25058;DHT22;13057;50.978;11.034;2023-01-13T04:38:19;11.00;99.90
25058;DHT22;13057;50.978;11.034;2023-01-13T04:40:46;11.10;99.90
25058;DHT22;13057;50.978;11.034;2023-01-13T04:43:12;11.00;99.90
25058;DHT22;13057;50.978;11.034;2023-01-13T04:45:40;11.10;99.90
25058;DHT22;13057;50.978;11.034;2023-01-13T04:48:06;11.10;99.90
25058;DHT22;13057;50.978;11.034;2023-01-13T04:50:33;11.10;99.90
25058;DHT22;13057;50.978;11.034;2023-01-13T04:52:59;11.10;99.90
25058;DHT22;13057;50.978;11.034;2023-01-13T04:55:26;11.10;99.90
25058;DHT22;13057;50.978;11.034;2023-01-13T04:57:52;11.10;99.90
25058;DHT22;13057;50.978;11.034;2023-01-13T05:00:20;11.10;99.90
25058;DHT22;13057;50.978;11.034;2023-01-13T05:02:49;11.10;99.90
25058;DHT22;13057;50.978;11.034;2023-01-13T05:05:15;11.10;99.90
25058;DHT22;13057;50.978;11.034;2023-01-13T05:07:41;11.10;99.90
25058;DHT22;13057;50.978;11.034;2023-01-13T05:10:07;11.10;99.90
25058;DHT22;13057;50.978;11.034;2023-01-13T05:12:34;11.10;99.90
25058;DHT22;13057;50.978;11.034;2023-01-13T05:15:19;11.10;99.90
25058;DHT22;13057;50.978;11.034;2023-01-13T05:17:57;11.10;99.90
25058;DHT22;13057;50.978;11.034;2023-01-13T05:20:24;11.10;99.90
25058;DHT22;13057;50.978;11.034;2023-01-13T05:22:50;11.10;99.90
25058;DHT22;13057;50.978;11.034;2023-01-13T05:25:28;11.10;99.90
25058;DHT22;13057;50.978;11.034;2023-01-13T05:27:56;11.10;99.90
25058;DHT22;13057;50.978;11.034;2023-01-13T05:30:24;11.10;99.90
25058;DHT22;13057;50.978;11.034;2023-01-13T05:32:51;11.10;99.90
25058;DHT22;13057;50.978;11.034;2023-01-13T05:35:17;11.10;99.90
25058;DHT22;13057;50.978;11.034;2023-01-13T05:37:44;11.10;99.90
25058;DHT22;13057;50.978;11.034;2023-01-13T05:40:13;11.10;99.90
25058;DHT22;13057;50.978;11.034;2023-01-13T05:43:04;11.10;99.90
25058;DHT22;13057;50.978;11.034;2023-01-13T05:45:42;11.10;99.90
25058;DHT22;13057;50.978;11.034;2023-01-13T05:48:08;11.10;99.90
25058;DHT22;13057;50.978;11.034;2023-01-13T05:50:34;11.10;99.90
25058;DHT22;13057;50.978;11.034;2023-01-13T05:52:59;11.10;99.90
25058;DHT22;13057;50.978;11.034;2023-01-13T05:55:25;11.10;99.90
25058;DHT22;13057;50.978;11.034;2023-01-13T05:57:57;11.10;99.90
25058;DHT22;13057;50.978;11.034;2023-01-13T06:00:23;11.10;99.90
25058;DHT22;13057;50.978;11.034;2023-01-13T06:02:49;11.10;99.90
25058;DHT22;13057;50.978;11.034;2023-01-13T06:05:15;11.10;99.90
25058;DHT22;13057;50.978;11.034;2023-01-13T06:07:40;11.00;99.90
25058;DHT22;13057;50.978;11.034;2023-01-13T06:10:07;11.00;99.90
25058;DHT22;13057;50.978;11.034;2023-01-13T06:12:33;11.10;99.90
25058;DHT22;13057;50.978;11.034;2023-01-13T06:14:59;11.10;99.90
25058;DHT22;13057;50.978;11.034;2023-01-13T06:17:25;11.10;99.90
25058;DHT22;13057;50.978;11.034;2023-01-13T06:19:51;11.10;99.90
25058;DHT22;13057;50.978;11.034;2023-01-13T06:22:22;10.90;99.90
25058;DHT22;13057;50.978;11.034;2023-01-13T06:24:49;10.70;99.90
25058;DHT22;13057;50.978;11.034;2023-01-13T06:27:16;10.60;99.90
25058;DHT22;13057;50.978;11.034;2023-01-13T06:29:42;10.60;99.90
25058;DHT22;13057;50.978;11.034;2023-01-13T06:32:11;10.50;99.90
25058;DHT22;13057;50.978;11.034;2023-01-13T06:34:42;10.40;99.90
25058;DHT22;13057;50.978;11.034;2023-01-13T06:37:11;10.40;99.90
25058;DHT22;13057;50.978;11.034;2023-01-13T06:39:40;10.80;99.90
25058;DHT22;13057;50.978;11.034;2023-01-13T06:42:06;11.00;99.90
25058;DHT22;13057;50.978;11.034;2023-01-13T06:44:44;11.50;99.90
25058;DHT22;13057;50.978;11.034;2023-01-13T06:47:10;11.80;99.90
25058;DHT22;13057;50.978;11.034;2023-01-13T06:49:36;11.70;99.90
25058;DHT22;13057;50.978;11.034;2023-01-13T06:52:02;11.20;99.90
25058;DHT22;13057;50.978;11.034;2023-01-13T06:54:28;11.40;99.90
25058;DHT22;13057;50.978;11.034;2023-01-13T06:56:54;11.40;99.90
25058;DHT22;13057;50.978;11.034;2023-01-13T06:59:20;11.00;99.90
25058;DHT22;13057;50.978;11.034;2023-01-13T07:01:47;10.70;99.90
25058;DHT22;13057;50.978;11.034;2023-01-13T07:04:13;10.70;99.90
25058;DHT22;13057;50.978;11.034;2023-01-13T07:06:39;10.70;99.90
25058;DHT22;13057;50.978;11.034;2023-01-13T07:09:04;10.30;99.90
25058;DHT22;13057;50.978;11.034;2023-01-13T07:11:30;9.90;99.90
25058;DHT22;13057;50.978;11.034;2023-01-13T07:13:57;9.60;99.90
25058;DHT22;13057;50.978;11.034;2023-01-13T07:16:35;9.40;99.90
25058;DHT22;13057;50.978;11.034;2023-01-13T07:19:00;9.40;99.90
25058;DHT22;13057;50.978;11.034;2023-01-13T07:21:26;9.30;99.90
25058;DHT22;13057;50.978;11.034;2023-01-13T07:23:52;9.20;99.90
25058;DHT22;13057;50.978;11.034;2023-01-13T07:26:18;9.20;99.90
25058;DHT22;13057;50.978;11.034;2023-01-13T07:28:44;9.10;99.90
25058;DHT22;13057;50.978;11.034;2023-01-13T07:31:17;9.10;99.90
25058;DHT22;13057;50.978;11.034;2023-01-13T07:33:43;9.10;99.90
25058;DHT22;13057;50.978;11.034;2023-01-13T07:36:09;9.10;99.90
25058;DHT22;13057;50.978;11.034;2023-01-13T07:38:36;9.10;99.90
25058;DHT22;13057;50.978;11.034;2023-01-13T07:41:05;9.10;99.90
25058;DHT22;13057;50.978;11.034;2023-01-13T07:43:43;9.00;99.90
25058;DHT22;13057;50.978;11.034;2023-01-13T07:46:09;9.00;99.90
25058;DHT22;13057;50.978;11.034;2023-01-13T07:48:35;9.00;99.90
25058;DHT22;13057;50.978;11.034;2023-01-13T07:51:03;9.00;99.90
25058;DHT22;13057;50.978;11.034;2023-01-13T07:53:29;9.00;99.90
25058;DHT22;13057;50.978;11.034;2023-01-13T07:55:57;9.10;99.90
25058;DHT22;13057;50.978;11.034;2023-01-13T07:58:24;9.20;99.90
25058;DHT22;13057;50.978;11.034;2023-01-13T08:00:51;9.20;99.90
25058;DHT22;13057;50.978;11.034;2023-01-13T08:03:17;9.20;99.90
25058;DHT22;13057;50.978;11.034;2023-01-13T08:05:43;9.20;99.90
25058;DHT22;13057;50.978;11.034;2023-01-13T08:08:10;9.20;99.90
25058;DHT22;13057;50.978;11.034;2023-01-13T08:10:43;9.30;99.90
25058;DHT22;13057;50.978;11.034;2023-01-13T08:13:11;9.20;99.90
25058;DHT22;13057;50.978;11.034;2023-01-13T08:15:46;9.20;99.90
25058;DHT22;13057;50.978;11.034;2023-01-13T08:18:12;9.30;99.90
25058;DHT22;13057;50.978;11.034;2023-01-13T08:20:39;9.20;99.90
25058;DHT22;13057;50.978;11.034;2023-01-13T08:23:05;9.20;99.90
25058;DHT22;13057;50.978;11.034;2023-01-13T08:25:31;9.20;99.90
25058;DHT22;13057;50.978;11.034;2023-01-13T08:27:57;9.10;99.90
25058;DHT22;13057;50.978;11.034;2023-01-13T08:30:26;9.10;99.90
25058;DHT22;13057;50.978;11.034;2023-01-13T08:32:54;9.10;99.90
25058;DHT22;13057;50.978;11.034;2023-01-13T08:35:20;9.10;99.90
25058;DHT22;13057;50.978;11.034;2023-01-13T08:37:47;9.10;99.90
25058;DHT22;13057;50.978;11.034;2023-01-13T08:40:15;9.10;99.90
25058;DHT22;13057;50.978;11.034;2023-01-13T08:42:41;9.10;99.90
25058;DHT22;13057;50.978;11.034;2023-01-13T08:45:08;9.10;99.90
25058;DHT22;13057;50.978;11.034;2023-01-13T08:47:34;9.10;99.90
25058;DHT22;13057;50.978;11.034;2023-01-13T08:50:04;9.10;99.90
25058;DHT22;13057;50.978;11.034;2023-01-13T08:52:30;9.10;99.90
25058;DHT22;13057;50.978;11.034;2023-01-13T08:54:56;9.10;99.90
25058;DHT22;13057;50.978;11.034;2023-01-13T08:57:22;9.00;99.90
25058;DHT22;13057;50.978;11.034;2023-01-13T08:59:48;9.00;99.90
25058;DHT22;13057;50.978;11.034;2023-01-13T09:02:17;9.10;99.90
25058;DHT22;13057;50.978;11.034;2023-01-13T09:04:44;9.00;99.90
25058;DHT22;13057;50.978;11.034;2023-01-13T09:07:10;9.10;99.90
25058;DHT22;13057;50.978;11.034;2023-01-13T09:09:37;9.00;99.90
25058;DHT22;13057;50.978;11.034;2023-01-13T09:12:03;9.00;99.90
25058;DHT22;13057;50.978;11.034;2023-01-13T09:14:42;9.00;99.90
25058;DHT22;13057;50.978;11.034;2023-01-13T09:17:08;9.00;99.90
25058;DHT22;13057;50.978;11.034;2023-01-13T09:19:34;8.90;99.90
25058;DHT22;13057;50.978;11.034;2023-01-13T09:22:01;8.90;99.90
25058;DHT22;13057;50.978;11.034;2023-01-13T09:24:27;8.90;99.90
25058;DHT22;13057;50.978;11.034;2023-01-13T09:26:53;9.10;99.90
25058;DHT22;13057;50.978;11.034;2023-01-13T09:29:20;9.40;99.90
25058;DHT22;13057;50.978;11.034;2023-01-13T09:31:47;9.70;99.90
25058;DHT22;13057;50.978;11.034;2023-01-13T09:34:19;9.90;99.90
25058;DHT22;13057;50.978;11.034;2023-01-13T09:37:01;10.00;99.90
25058;DHT22;13057;50.978;11.034;2023-01-13T09:39:27;10.10;99.90
25058;DHT22;13057;50.978;11.034;2023-01-13T09:41:56;10.20;99.90
25058;DHT22;13057;50.978;11.034;2023-01-13T09:45:05;10.20;99.90
25058;DHT22;13057;50.978;11.034;2023-01-13T09:47:43;10.10;99.90
25058;DHT22;13057;50.978;11.034;2023-01-13T09:50:27;10.10;99.90
25058;DHT22;13057;50.978;11.034;2023-01-13T09:52:58;10.10;99.90
25058;DHT22;13057;50.978;11.034;2023-01-13T09:55:31;10.10;99.90
25058;DHT22;13057;50.978;11.034;2023-01-13T09:58:00;10.10;99.90
25058;DHT22;13057;50.978;11.034;2023-01-13T10:00:34;10.00;99.90
25058;DHT22;13057;50.978;11.034;2023-01-13T10:03:17;10.00;99.90
25058;DHT22;13057;50.978;11.034;2023-01-13T10:05:50;9.90;99.90
25058;DHT22;13057;50.978;11.034;2023-01-13T10:08:26;9.90;99.90
25058;DHT22;13057;50.978;11.034;2023-01-13T10:11:00;9.90;99.90
25058;DHT22;13057;50.978;11.034;2023-01-13T10:13:50;9.80;99.90
25058;DHT22;13057;50.978;11.034;2023-01-13T10:16:30;9.80;99.90
25058;DHT22;13057;50.978;11.034;2023-01-13T10:19:05;9.80;99.90
25058;DHT22;13057;50.978;11.034;2023-01-13T10:21:56;9.80;99.90
25058;DHT22;13057;50.978;11.034;2023-01-13T10:24:57;9.80;99.90
25058;DHT22;13057;50.978;11.034;2023-01-13T10:27:32;9.80;99.90
25058;DHT22;13057;50.978;11.034;2023-01-13T10:30:11;9.70;99.90
25058;DHT22;13057;50.978;11.034;2023-01-13T10:32:39;9.80;99.90
25058;DHT22;13057;50.978;11.034;2023-01-13T10:35:06;9.80;99.90
25058;DHT22;13057;50.978;11.034;2023-01-13T10:37:33;9.80;99.90
25058;DHT22;13057;50.978;11.034;2023-01-13T10:40:03;9.80;99.90
25058;DHT22;13057;50.978;11.034;2023-01-13T10:42:32;9.80;99.90
25058;DHT22;13057;50.978;11.034;2023-01-13T10:44:59;9.90;99.90
25058;DHT22;13057;50.978;11.034;2023-01-13T10:47:29;9.90;99.90
25058;DHT22;13057;50.978;11.034;2023-01-13T10:50:17;9.90;99.90
25058;DHT22;13057;50.978;11.034;2023-01-13T10:52:58;9.90;99.90
25058;DHT22;13057;50.978;11.034;2023-01-13T10:55:28;9.90;99.90
25058;DHT22;13057;50.978;11.034;2023-01-13T10:57:55;10.00;99.90
25058;DHT22;13057;50.978;11.034;2023-01-13T11:00:27;10.00;99.90
25058;DHT22;13057;50.978;11.034;2023-01-13T11:03:14;10.00;99.90
25058;DHT22;13057;50.978;11.034;2023-01-13T11:05:47;10.00;99.90
25058;DHT22;13057;50.978;11.034;2023-01-13T11:08:21;9.90;99.90
25058;DHT22;13057;50.978;11.034;2023-01-13T11:10:49;9.90;99.90
25058;DHT22;13057;50.978;11.034;2023-01-13T11:13:29;9.90;99.90
25058;DHT22;13057;50.978;11.034;2023-01-13T11:16:06;9.90;99.90
25058;DHT22;13057;50.978;11.034;2023-01-13T11:19:08;9.90;99.90
25058;DHT22;13057;50.978;11.034;2023-01-13T11:22:11;10.00;99.90
25058;DHT22;13057;50.978;11.034;2023-01-13T11:24:47;10.10;99.90
25058;DHT22;13057;50.978;11.034;2023-01-13T11:30:08;10.20;99.90
25058;DHT22;13057;50.978;11.034;2023-01-13T11:32:42;10.20;99.90
25058;DHT22;13057;50.978;11.034;2023-01-13T11:35:16;10.20;99.90
25058;DHT22;13057;50.978;11.034;2023-01-13T11:37:49;10.20;99.90
25058;DHT22;13057;50.978;11.034;2023-01-13T11:40:26;10.20;99.90
25058;DHT22;13057;50.978;11.034;2023-01-13T11:43:19;10.30;99.90
25058;DHT22;13057;50.978;11.034;2023-01-13T11:45:56;10.30;99.90
25058;DHT22;13057;50.978;11.034;2023-01-13T11:48:26;10.30;99.90
25058;DHT22;13057;50.978;11.034;2023-01-13T11:51:03;10.40;99.90
25058;DHT22;13057;50.978;11.034;2023-01-13T11:53:44;10.50;99.90
25058;DHT22;13057;50.978;11.034;2023-01-13T12:02:22;10.60;99.90
25058;DHT22;13057;50.978;11.034;2023-01-13T12:05:13;10.50;99.90
25058;DHT22;13057;50.978;11.034;2023-01-13T12:07:49;10.40;99.90
25058;DHT22;13057;50.978;11.034;2023-01-13T12:10:34;10.40;99.90
25058;DHT22;13057;50.978;11.034;2023-01-13T12:13:19;10.40;99.90
25058;DHT22;13057;50.978;11.034;2023-01-13T12:15:59;10.30;99.90
25058;DHT22;13057;50.978;11.034;2023-01-13T12:18:50;10.10;99.90
25058;DHT22;13057;50.978;11.034;2023-01-13T12:21:29;10.00;99.90
25058;DHT22;13057;50.978;11.034;2023-01-13T12:24:15;9.90;99.90
25058;DHT22;13057;50.978;11.034;2023-01-13T12:26:53;9.80;99.90
25058;DHT22;13057;50.978;11.034;2023-01-13T12:29:40;9.80;99.90
25058;DHT22;13057;50.978;11.034;2023-01-13T12:32:32;9.80;99.90
25058;DHT22;13057;50.978;11.034;2023-01-13T12:35:24;9.70;99.90
25058;DHT22;13057;50.978;11.034;2023-01-13T12:38:02;9.70;99.90
25058;DHT22;13057;50.978;11.034;2023-01-13T12:40:43;9.70;99.90
25058;DHT22;13057;50.978;11.034;2023-01-13T12:43:16;9.70;99.90
25058;DHT22;13057;50.978;11.034;2023-01-13T12:46:32;9.80;99.90
25058;DHT22;13057;50.978;11.034;2023-01-13T12:49:06;9.80;99.90
25058;DHT22;13057;50.978;11.034;2023-01-13T12:52:08;9.90;99.90
25058;DHT22;13057;50.978;11.034;2023-01-13T12:54:59;9.90;99.90
25058;DHT22;13057;50.978;11.034;2023-01-13T12:57:28;9.90;99.90
25058;DHT22;13057;50.978;11.034;2023-01-13T13:00:17;9.90;99.90
25058;DHT22;13057;50.978;11.034;2023-01-13T13:03:16;10.00;99.90
25058;DHT22;13057;50.978;11.034;2023-01-13T13:05:53;10.10;99.90
25058;DHT22;13057;50.978;11.034;2023-01-13T13:08:29;10.20;99.90
25058;DHT22;13057;50.978;11.034;2023-01-13T13:11:21;10.20;99.90
25058;DHT22;13057;50.978;11.034;2023-01-13T13:14:02;10.20;99.90
25058;DHT22;13057;50.978;11.034;2023-01-13T13:16:45;10.20;99.90
25058;DHT22;13057;50.978;11.034;2023-01-13T13:25:22;10.30;99.90
25058;DHT22;13057;50.978;11.034;2023-01-13T13:27:59;10.40;99.90
25058;DHT22;13057;50.978;11.034;2023-01-13T13:30:29;10.30;99.90
25058;DHT22;13057;50.978;11.034;2023-01-13T13:33:14;10.30;99.90
25058;DHT22;13057;50.978;11.034;2023-01-13T13:35:53;10.40;99.90
25058;DHT22;13057;50.978;11.034;2023-01-13T13:41:25;10.30;99.20
25058;DHT22;13057;50.978;11.034;2023-01-13T13:44:20;10.30;99.20
25058;DHT22;13057;50.978;11.034;2023-01-13T13:47:04;10.20;99.30
25058;DHT22;13057;50.978;11.034;2023-01-13T13:49:41;10.20;99.50
25058;DHT22;13057;50.978;11.034;2023-01-13T13:52:21;10.20;99.30
25058;DHT22;13057;50.978;11.034;2023-01-13T13:54:52;10.20;99.50
25058;DHT22;13057;50.978;11.034;2023-01-13T13:57:33;10.20;99.70
25058;DHT22;13057;50.978;11.034;2023-01-13T14:00:07;10.10;99.90
25058;DHT22;13057;50.978;11.034;2023-01-13T14:02:53;10.10;99.80
25058;DHT22;13057;50.978;11.034;2023-01-13T14:05:25;10.10;99.90
25058;DHT22;13057;50.978;11.034;2023-01-13T14:07:59;10.10;99.90
25058;DHT22;13057;50.978;11.034;2023-01-13T14:10:35;10.10;99.90
25058;DHT22;13057;50.978;11.034;2023-01-13T14:13:13;10.10;99.90
25058;DHT22;13057;50.978;11.034;2023-01-13T14:15:40;10.10;99.80
25058;DHT22;13057;50.978;11.034;2023-01-13T14:18:15;10.10;99.70
25058;DHT22;13057;50.978;11.034;2023-01-13T14:20:42;10.10;99.80
25058;DHT22;13057;50.978;11.034;2023-01-13T14:23:15;10.10;99.60
25058;DHT22;13057;50.978;11.034;2023-01-13T14:25:49;10.10;99.20
25058;DHT22;13057;50.978;11.034;2023-01-13T14:28:25;10.20;98.90
25058;DHT22;13057;50.978;11.034;2023-01-13T14:30:53;10.20;98.50
25058;DHT22;13057;50.978;11.034;2023-01-13T14:33:32;10.10;98.60
25058;DHT22;13057;50.978;11.034;2023-01-13T14:36:15;10.10;99.10
25058;DHT22;13057;50.978;11.034;2023-01-13T14:38:46;10.00;99.40
25058;DHT22;13057;50.978;11.034;2023-01-13T14:41:18;10.00;99.40
25058;DHT22;13057;50.978;11.034;2023-01-13T14:43:48;10.00;99.30
25058;DHT22;13057;50.978;11.034;2023-01-13T14:46:14;10.00;99.30
25058;DHT22;13057;50.978;11.034;2023-01-13T14:48:43;9.90;99.20
25058;DHT22;13057;50.978;11.034;2023-01-13T14:51:21;9.90;99.40
25058;DHT22;13057;50.978;11.034;2023-01-13T14:53:47;9.90;98.90
25058;DHT22;13057;50.978;11.034;2023-01-13T14:56:35;9.90;99.00
25058;DHT22;13057;50.978;11.034;2023-01-13T15:02:01;9.80;99.20
25058;DHT22;13057;50.978;11.034;2023-01-13T15:04:33;9.70;99.70
25058;DHT22;13057;50.978;11.034;2023-01-13T15:07:02;9.70;98.90
25058;DHT22;13057;50.978;11.034;2023-01-13T15:09:39;9.70;99.60
25058;DHT22;13057;50.978;11.034;2023-01-13T15:12:16;9.80;99.60
25058;DHT22;13057;50.978;11.034;2023-01-13T15:14:42;9.60;99.90
25058;DHT22;13057;50.978;11.034;2023-01-13T15:17:15;9.60;99.90
25058;DHT22;13057;50.978;11.034;2023-01-13T15:19:41;9.60;99.90
25058;DHT22;13057;50.978;11.034;2023-01-13T15:22:07;9.50;99.90
25058;DHT22;13057;50.978;11.034;2023-01-13T15:24:33;9.50;99.90
25058;DHT22;13057;50.978;11.034;2023-01-13T15:26:59;9.40;99.90
25058;DHT22;13057;50.978;11.034;2023-01-13T15:29:25;9.40;99.90
25058;DHT22;13057;50.978;11.034;2023-01-13T15:31:53;9.30;99.90
25058;DHT22;13057;50.978;11.034;2023-01-13T15:34:19;9.30;99.90
25058;DHT22;13057;50.978;11.034;2023-01-13T15:36:45;9.40;99.90
25058;DHT22;13057;50.978;11.034;2023-01-13T15:39:12;9.40;99.90
25058;DHT22;13057;50.978;11.034;2023-01-13T15:41:38;9.40;99.90
25058;DHT22;13057;50.978;11.034;2023-01-13T15:44:16;9.40;99.90
25058;DHT22;13057;50.978;11.034;2023-01-13T15:46:54;9.40;99.90
25058;DHT22;13057;50.978;11.034;2023-01-13T15:49:29;9.40;99.90
25058;DHT22;13057;50.978;11.034;2023-01-13T15:52:01;9.40;99.90
25058;DHT22;13057;50.978;11.034;2023-01-13T15:54:27;9.40;99.90
25058;DHT22;13057;50.978;11.034;2023-01-13T15:56:53;9.40;99.90
25058;DHT22;13057;50.978;11.034;2023-01-13T15:59:22;9.40;99.90
25058;DHT22;13057;50.978;11.034;2023-01-13T16:01:49;9.40;99.90
25058;DHT22;13057;50.978;11.034;2023-01-13T16:04:15;9.50;99.90
25058;DHT22;13057;50.978;11.034;2023-01-13T16:06:41;9.40;99.90
25058;DHT22;13057;50.978;11.034;2023-01-13T16:09:06;9.40;99.90
25058;DHT22;13057;50.978;11.034;2023-01-13T16:11:33;9.40;99.90
25058;DHT22;13057;50.978;11.034;2023-01-13T16:13:59;9.30;99.90
25058;DHT22;13057;50.978;11.034;2023-01-13T16:16:27;9.30;99.90
25058;DHT22;13057;50.978;11.034;2023-01-13T16:18:54;9.20;99.90